Mount Hood, Oregon
Current Conditions -  °F | °C
As of 9:39 PM on Thursday 30 Oct 2014 (Local Time) from K4S2 Reporting Station
Moderate Rain Moderate Rain  
Wind Chill: 52°   Ceiling: 9000
Heat Index: 52°   Visibility: 1.7mi
Dew Point: 52°   Wind: 0mph
Humidity: 100%   Direction: NA
Pressure: 29.82"   Gusts: NA
Location:  45.3977°N, 121.59°W
Report Text: K4S2 310439Z AUTO 00000KT 1 3/4SM RA SCT065 OVC090 11/11 A2982 RMK AO2 P0002 SLP115 T01100110
Loading
Personal Weather Stations






























Interactive Weather Map
Tropical Storm Tracking
New forecast layout! Learn more

10-Day Weather Forecast

Advertisements
Track Severe Weather on mobile